Austin, Indiana
Current Conditions -  °F | °C
As of 5:46 PM on Tuesday 25 Nov 2014 (Local Time) from KBAK Reporting Station
Broken Clouds Broken Clouds  
Wind Chill: 26°   Ceiling: 2800
Heat Index: 32°   Visibility: 10mi
Dew Point: 28°   Wind: 7mph
Humidity: 87%   Direction: 330°NNW
Pressure: 30.17"   Gusts: NA
Location:  38.76°N, 85.81°W
Report Text: KBAK 252246Z 33006KT 10SM BKN028 00/M02 A3017
Loading
Personal Weather Stations






























Interactive Weather Map New forecast layout! Learn more

10-Day Weather Forecast

Advertisements
Track Severe Weather on mobile